Fort Simpson Airport
CYFS : rendu visible

Aérodrome :











RETROUVEZ-NOUS SUR...

 
LOGIN :

S'inscrire | Disclaimer

   EN    FR    IT 

 









Légende :    VFR   VFR Marginal   IFR   IFR Intensif   IFR Très Intensif
Visi : 
Plafond : 
>= 8 km
>= 3000ft
5 à 8 km
1000 à 3000 ft
1500m à 5 km
500 à 1000 ft
800 à 1500m
200 à 500 ft
< 800m
< 200 ft
Symboles :   Orages  Brouillard  Fortes neiges  Fortes précipitations  Vent > 20 kt






- Altitude de l'aérodrome : 555 ft
- Code IATA : YFS


CYFS - Fort Simpson

DERNIER METAR :
  • 201200Z 13008KT 090V160 15SM FEW010 BKN210 M18/M21 A2993 RMK SC2CI3 SLP157

METARs EXPIRÉS :
  • 201100Z 12006KT 090V160 15SM FEW190 SCT220 M19/M22 A2996 RMK AC1CI3 AC TR SLP167
  • 201000Z 13005KT 090V160 15SM FEW180 FEW230 M20/M22 A3000 RMK AC1CI2 AC TR SLP183

TAF TAF CYFS
Valide du 20 à 12h jusqu'au 21 à 00h UTC


201138Z 2012/2024 12008KT P6SM BKN220
BECMG 2014/2016 12010G20KT RMK NXT FCST BY 201800Z



MET'MAP, la Météo Aéronautique d'un coup d'oeil ! - Copyright ORBIFLY Décembre 2007 - Disclaimer

ORBIFLY MET'MAP TEAM :

Programmation & Développement : Alexandra Zaïnal
Conception & Développement : Baudouin d'Aumeries
Co-Programmation & Développement : Marc-Olivier Méhu
Soutien technique & logistique : Manuel Goepfert

Contact : metmap@orbifly.com




SOURCES & CREDITS :

   NOAA       Earth
Advisory